createdAt,value
2023-07-31T00:02:41.373Z,17.60
2023-07-31T00:06:45.652Z,17.60
2023-07-31T00:10:48.540Z,17.60
2023-07-31T00:14:51.479Z,17.60
2023-07-31T00:18:54.378Z,17.50
2023-07-31T00:22:58.651Z,17.50
2023-07-31T00:27:01.527Z,17.60
2023-07-31T00:31:04.577Z,17.60
2023-07-31T00:35:07.818Z,17.50
2023-07-31T00:39:12.083Z,17.50
2023-07-31T00:43:14.976Z,17.50
2023-07-31T00:47:17.948Z,17.50
2023-07-31T00:51:20.839Z,17.50
2023-07-31T00:55:25.241Z,17.50
2023-07-31T00:59:28.230Z,17.50
2023-07-31T01:03:31.177Z,17.50
2023-07-31T01:07:37.470Z,17.50
2023-07-31T01:11:47.723Z,17.50
2023-07-31T01:15:50.714Z,17.50
2023-07-31T01:19:53.802Z,17.50
2023-07-31T01:24:11.049Z,17.40
2023-07-31T01:28:15.868Z,17.40
2023-07-31T01:32:24.885Z,17.40
2023-07-31T01:36:28.410Z,17.40
2023-07-31T01:40:31.433Z,17.40
2023-07-31T01:44:37.147Z,17.40
2023-07-31T01:48:40.024Z,17.40
2023-07-31T01:52:42.944Z,17.40
2023-07-31T01:56:45.855Z,17.40
2023-07-31T02:00:50.114Z,17.30
2023-07-31T02:04:53.110Z,17.30
2023-07-31T02:08:56.012Z,17.30
2023-07-31T02:13:02.037Z,17.30
2023-07-31T02:17:06.676Z,17.30
2023-07-31T02:21:09.656Z,17.30
2023-07-31T02:25:12.688Z,17.30
2023-07-31T02:29:15.629Z,17.30
2023-07-31T02:33:19.944Z,17.20
2023-07-31T02:37:29.963Z,17.20
2023-07-31T02:41:32.913Z,17.20
2023-07-31T02:45:38.023Z,17.20
2023-07-31T02:49:42.346Z,17.20
2023-07-31T02:53:45.260Z,17.20
2023-07-31T02:57:48.582Z,17.20
2023-07-31T03:02:00.655Z,17.10
2023-07-31T03:06:05.009Z,17.10
2023-07-31T03:10:10.631Z,17.10
2023-07-31T03:14:13.641Z,17.10
2023-07-31T03:18:16.989Z,17.10
2023-07-31T03:22:21.277Z,17.00
2023-07-31T03:26:24.191Z,17.00
2023-07-31T03:30:27.212Z,17.00
2023-07-31T03:34:30.089Z,17.00
2023-07-31T03:38:34.347Z,17.00
2023-07-31T03:42:37.236Z,16.90
2023-07-31T03:46:40.473Z,16.90
2023-07-31T03:50:44.769Z,16.90
2023-07-31T03:54:49.096Z,16.80
2023-07-31T03:58:51.994Z,16.80
2023-07-31T04:02:55.001Z,16.70
2023-07-31T04:06:57.930Z,16.70
2023-07-31T04:11:02.197Z,16.70
2023-07-31T04:15:05.422Z,16.60
2023-07-31T04:19:08.310Z,16.60
2023-07-31T04:23:11.206Z,16.60
2023-07-31T04:27:15.598Z,16.60
2023-07-31T04:31:18.616Z,16.60
2023-07-31T04:35:21.536Z,16.50
2023-07-31T04:39:24.480Z,16.50
2023-07-31T04:43:28.828Z,16.50
2023-07-31T04:47:31.759Z,16.50
2023-07-31T04:51:34.690Z,16.50
2023-07-31T04:55:37.613Z,16.40
2023-07-31T04:59:41.892Z,16.40
2023-07-31T05:03:44.848Z,16.40
2023-07-31T05:07:47.867Z,16.40
2023-07-31T05:11:50.746Z,16.50
2023-07-31T05:15:55.185Z,16.50
2023-07-31T05:19:59.857Z,16.50
2023-07-31T05:24:02.729Z,16.60
2023-07-31T05:28:05.824Z,16.60
2023-07-31T05:32:10.687Z,16.60
2023-07-31T05:36:13.658Z,16.70
2023-07-31T05:40:17.732Z,16.80
2023-07-31T05:44:20.663Z,16.80
2023-07-31T05:48:24.974Z,16.90
2023-07-31T05:52:27.862Z,16.90
2023-07-31T05:56:30.822Z,16.90
2023-07-31T06:00:33.801Z,16.90
2023-07-31T06:04:39.753Z,17.00
2023-07-31T06:08:44.060Z,17.00
2023-07-31T06:12:46.959Z,17.00
2023-07-31T06:16:50.911Z,17.00
2023-07-31T06:20:54.938Z,17.00
2023-07-31T06:25:06.817Z,17.00
2023-07-31T06:29:09.731Z,17.00
2023-07-31T06:33:14.697Z,17.00
2023-07-31T06:37:17.717Z,17.00
2023-07-31T06:41:21.966Z,16.90
2023-07-31T06:45:24.959Z,17.00
2023-07-31T06:50:01.666Z,16.90
2023-07-31T06:54:04.628Z,16.90
2023-07-31T06:58:09.001Z,17.00
2023-07-31T07:02:11.903Z,17.00
2023-07-31T07:06:15.132Z,17.00
2023-07-31T07:10:18.020Z,17.00
2023-07-31T07:14:22.923Z,17.00
2023-07-31T07:18:25.889Z,17.00
2023-07-31T07:22:29.392Z,17.10
2023-07-31T07:26:33.227Z,17.20
2023-07-31T07:30:37.491Z,17.20
2023-07-31T07:34:42.475Z,17.20
2023-07-31T07:38:45.407Z,17.30
2023-07-31T07:42:48.281Z,17.40
2023-07-31T07:46:52.629Z,17.40
2023-07-31T07:50:55.518Z,17.60
2023-07-31T07:54:58.478Z,17.70
2023-07-31T07:59:01.341Z,17.80
2023-07-31T08:03:05.743Z,17.90
2023-07-31T08:07:08.750Z,18.00
2023-07-31T08:11:11.624Z,18.00
2023-07-31T08:15:14.539Z,18.10
2023-07-31T08:19:18.951Z,18.10
2023-07-31T08:23:21.954Z,18.10
2023-07-31T08:27:24.827Z,18.10
2023-07-31T08:31:28.100Z,18.10
2023-07-31T08:35:33.003Z,18.10
2023-07-31T08:39:35.878Z,18.10
2023-07-31T08:43:46.753Z,18.10
2023-07-31T08:47:50.329Z,18.20
2023-07-31T08:51:55.045Z,18.20
2023-07-31T08:55:58.690Z,18.30
2023-07-31T09:00:01.976Z,18.30
2023-07-31T09:04:06.495Z,18.30
2023-07-31T09:08:11.638Z,18.30
2023-07-31T09:12:14.762Z,18.30
2023-07-31T09:16:18.374Z,18.40
2023-07-31T09:20:29.512Z,18.40
2023-07-31T09:24:34.396Z,18.40
2023-07-31T09:28:37.419Z,18.40
2023-07-31T09:32:40.487Z,18.40
2023-07-31T09:36:43.889Z,18.50
2023-07-31T09:41:01.605Z,18.50
2023-07-31T09:45:14.445Z,18.50
2023-07-31T09:49:22.464Z,18.60
2023-07-31T09:53:30.523Z,18.60
2023-07-31T09:57:35.224Z,18.70
2023-07-31T10:01:38.900Z,18.70
2023-07-31T10:05:43.871Z,18.80
2023-07-31T10:09:49.081Z,18.90
2023-07-31T10:13:53.697Z,19.00
2023-07-31T10:18:14.941Z,19.00
2023-07-31T10:22:27.663Z,19.10
2023-07-31T10:26:34.478Z,19.20
2023-07-31T10:30:40.044Z,19.30
2023-07-31T10:34:44.628Z,19.30
2023-07-31T10:38:47.629Z,19.40
2023-07-31T10:42:51.191Z,19.40
2023-07-31T10:46:58.115Z,19.50
2023-07-31T10:51:01.190Z,19.50
2023-07-31T10:55:17.332Z,19.50
2023-07-31T10:59:21.420Z,19.50
2023-07-31T11:03:27.414Z,19.50
2023-07-31T11:07:48.107Z,19.50
2023-07-31T11:11:53.433Z,19.50
2023-07-31T11:15:56.339Z,19.50
2023-07-31T11:20:02.503Z,19.50
2023-07-31T11:24:06.652Z,19.50
2023-07-31T11:28:10.995Z,19.50
2023-07-31T11:32:18.172Z,19.40
2023-07-31T11:36:22.855Z,19.40
2023-07-31T11:40:32.831Z,19.40
2023-07-31T11:44:40.162Z,19.30
2023-07-31T11:48:43.213Z,19.30
2023-07-31T11:52:48.285Z,19.30
2023-07-31T11:56:51.738Z,19.30
2023-07-31T12:00:55.001Z,19.30
2023-07-31T12:04:57.955Z,19.40
2023-07-31T12:09:04.177Z,19.40
2023-07-31T12:13:07.687Z,19.50
2023-07-31T12:17:12.848Z,19.50
2023-07-31T12:21:17.121Z,19.50
2023-07-31T12:25:21.526Z,19.60
2023-07-31T12:29:24.532Z,19.60
2023-07-31T12:33:32.456Z,19.60
2023-07-31T12:37:35.438Z,19.60
2023-07-31T12:41:39.708Z,19.60
2023-07-31T12:45:42.689Z,19.70
2023-07-31T12:49:45.830Z,19.70
2023-07-31T12:53:48.751Z,19.80
2023-07-31T12:57:53.311Z,19.80
2023-07-31T13:01:58.396Z,19.80
2023-07-31T13:06:01.337Z,19.90
2023-07-31T13:10:04.419Z,19.90
2023-07-31T13:14:08.650Z,19.90
2023-07-31T13:18:11.538Z,19.90
2023-07-31T13:22:14.546Z,19.90
2023-07-31T13:26:17.479Z,19.90
2023-07-31T13:30:21.838Z,19.90
2023-07-31T13:34:24.756Z,19.90
2023-07-31T13:38:27.718Z,19.90
2023-07-31T13:42:30.739Z,19.80
2023-07-31T13:46:35.042Z,19.80
2023-07-31T13:50:38.075Z,19.80
2023-07-31T13:54:41.018Z,19.80
2023-07-31T13:58:43.959Z,19.80
2023-07-31T14:02:48.225Z,19.70
2023-07-31T14:06:51.638Z,19.70
2023-07-31T14:10:54.560Z,19.70
2023-07-31T14:14:57.706Z,19.70
2023-07-31T14:19:02.073Z,19.70
2023-07-31T14:23:05.566Z,19.70
2023-07-31T14:27:08.820Z,19.80
2023-07-31T14:31:11.792Z,19.90
2023-07-31T14:35:16.087Z,20.00
2023-07-31T14:39:19.043Z,20.10
2023-07-31T14:43:21.933Z,20.30
2023-07-31T14:47:26.427Z,20.40
2023-07-31T14:51:30.997Z,20.40
2023-07-31T14:55:33.954Z,20.50
2023-07-31T14:59:38.567Z,20.50
2023-07-31T15:03:41.849Z,20.50
2023-07-31T15:07:46.122Z,20.50
2023-07-31T15:11:49.045Z,20.50
2023-07-31T15:15:51.931Z,20.40
2023-07-31T15:19:54.797Z,20.40
2023-07-31T15:23:59.152Z,20.40
2023-07-31T15:28:02.112Z,20.40
2023-07-31T15:32:05.387Z,20.40
2023-07-31T15:36:08.490Z,20.50
2023-07-31T15:40:13.158Z,20.50
2023-07-31T15:44:16.230Z,20.60
2023-07-31T15:48:19.152Z,20.60
2023-07-31T15:52:22.048Z,20.60
2023-07-31T15:56:26.331Z,20.70
2023-07-31T16:00:29.324Z,20.60
2023-07-31T16:04:32.182Z,20.60
2023-07-31T16:08:41.933Z,20.60
2023-07-31T16:12:46.184Z,20.60
2023-07-31T16:20:52.158Z,20.50
2023-07-31T16:24:55.098Z,20.40
2023-07-31T16:28:59.431Z,20.40
2023-07-31T16:33:02.514Z,20.40
2023-07-31T16:37:05.909Z,20.40
2023-07-31T16:41:08.776Z,20.40
2023-07-31T16:45:13.066Z,20.40
2023-07-31T16:49:15.940Z,20.30
2023-07-31T16:53:18.869Z,20.30
2023-07-31T16:57:23.204Z,20.30
2023-07-31T17:01:31.717Z,20.20
2023-07-31T17:05:34.745Z,20.20
2023-07-31T17:09:37.682Z,20.20
2023-07-31T17:13:40.575Z,20.20
2023-07-31T17:17:45.008Z,20.10
2023-07-31T17:21:48.026Z,20.10
2023-07-31T17:25:50.903Z,20.00
2023-07-31T17:29:53.904Z,20.00
2023-07-31T17:33:58.178Z,19.90
2023-07-31T17:38:02.383Z,19.90
2023-07-31T17:42:06.064Z,19.90
2023-07-31T17:46:10.486Z,19.80
2023-07-31T17:50:14.807Z,19.80
2023-07-31T17:54:17.733Z,19.70
2023-07-31T17:58:20.616Z,19.70
2023-07-31T18:02:55.973Z,19.70
2023-07-31T18:07:04.669Z,19.70
2023-07-31T18:11:07.629Z,19.70
2023-07-31T18:15:12.440Z,19.70
2023-07-31T18:19:15.475Z,19.60
2023-07-31T18:23:20.005Z,19.60
2023-07-31T18:27:22.948Z,19.60
2023-07-31T18:31:25.903Z,19.60
2023-07-31T18:35:28.880Z,19.50
2023-07-31T18:39:33.155Z,19.50
2023-07-31T18:43:37.874Z,19.50
2023-07-31T18:47:41.359Z,19.40
2023-07-31T18:51:47.873Z,19.40
2023-07-31T18:55:53.249Z,19.40
2023-07-31T19:00:04.281Z,19.40
2023-07-31T19:04:08.027Z,19.30
2023-07-31T19:08:13.981Z,19.30
2023-07-31T19:12:19.263Z,19.30
2023-07-31T19:16:25.750Z,19.20
2023-07-31T19:20:28.793Z,19.20
2023-07-31T19:24:48.242Z,19.10
2023-07-31T19:28:53.433Z,19.10
2023-07-31T19:32:56.664Z,19.00
2023-07-31T19:36:59.652Z,19.00
2023-07-31T19:41:04.592Z,18.90
2023-07-31T19:45:10.857Z,18.90
2023-07-31T19:49:14.458Z,18.90
2023-07-31T19:53:40.593Z,18.90
2023-07-31T19:57:44.093Z,18.80
2023-07-31T20:01:49.764Z,18.80
2023-07-31T20:06:04.413Z,18.80
2023-07-31T20:10:08.211Z,18.70
2023-07-31T20:14:11.628Z,18.70
2023-07-31T20:18:16.030Z,18.60
2023-07-31T20:22:19.631Z,18.60
2023-07-31T20:26:23.107Z,18.60
2023-07-31T20:30:34.158Z,18.50
2023-07-31T20:34:49.776Z,18.50
2023-07-31T20:38:56.321Z,18.50
2023-07-31T20:43:01.501Z,18.50
2023-07-31T20:47:05.646Z,18.50
2023-07-31T20:51:11.156Z,18.40
2023-07-31T20:55:15.130Z,18.40
2023-07-31T20:59:18.059Z,18.40
2023-07-31T21:03:21.084Z,18.40
2023-07-31T21:07:25.557Z,18.30
2023-07-31T21:11:28.577Z,18.30
2023-07-31T21:15:31.630Z,18.30
2023-07-31T21:19:34.551Z,18.30
2023-07-31T21:23:38.844Z,18.30
2023-07-31T21:27:41.738Z,18.20
2023-07-31T21:31:44.674Z,18.20
2023-07-31T21:35:47.610Z,18.20
2023-07-31T21:39:51.876Z,18.20
2023-07-31T21:43:54.789Z,18.20
2023-07-31T21:47:57.872Z,18.20
2023-07-31T21:52:01.812Z,18.20
2023-07-31T21:56:06.318Z,18.10
2023-07-31T22:00:09.862Z,18.20
2023-07-31T22:04:12.789Z,18.10
2023-07-31T22:08:15.776Z,18.20
2023-07-31T22:12:20.046Z,18.10
2023-07-31T22:16:22.963Z,18.10
2023-07-31T22:20:25.891Z,18.10
2023-07-31T22:24:28.822Z,18.10
2023-07-31T22:28:33.125Z,18.10
2023-07-31T22:32:36.049Z,18.00
2023-07-31T22:36:39.309Z,18.10
2023-07-31T22:40:42.491Z,18.00
2023-07-31T22:44:46.763Z,18.00
2023-07-31T22:48:50.475Z,17.90
2023-07-31T22:52:55.404Z,17.90
2023-07-31T22:56:58.294Z,17.80
2023-07-31T23:01:06.340Z,17.80
2023-07-31T23:05:09.379Z,17.70
2023-07-31T23:09:12.296Z,17.70
2023-07-31T23:13:15.189Z,17.60
2023-07-31T23:17:19.535Z,17.60
2023-07-31T23:21:22.460Z,17.60
2023-07-31T23:25:25.353Z,17.60
2023-07-31T23:29:28.277Z,17.50
2023-07-31T23:33:32.964Z,17.50
2023-07-31T23:37:35.905Z,17.50
2023-07-31T23:41:38.811Z,17.50
2023-07-31T23:45:41.752Z,17.50
2023-07-31T23:49:46.013Z,17.50
2023-07-31T23:53:48.957Z,17.50
2023-07-31T23:57:51.861Z,17.50
